Time;durP1;ratioP1;P1;durP2;ratioP2;P2;SDS_P1;SDS_P2;PMS_P1;PMS_P2;Temp;Humidity;BMP_temperature;BMP_pressure;BME280_temperature;BME280_humidity;BME280_pressure;Samples;Min_cycle;Max_cycle;Signal;HPM_P1;HPM_P2
2022/12/30 00:01:31;;;;;;;7.30;1.67;;;6.80;99.90;;;;;;5078471;28;20199;-62
2022/12/30 00:03:58;;;;;;;5.53;1.93;;;6.80;99.90;;;;;;5077164;28;20957;-61
2022/12/30 00:06:25;;;;;;;9.10;1.67;;;6.80;99.90;;;;;;5078649;28;20247;-62
2022/12/30 00:08:55;;;;;;;9.03;2.57;;;6.80;99.90;;;;;;5077942;28;20324;-62
2022/12/30 00:11:28;;;;;;;4.83;1.43;;;6.80;99.90;;;;;;5080999;28;20214;-61
2022/12/30 00:33:54;;;;;;;6.47;1.40;;;6.80;99.90;;;;;;5078805;28;20199;-60
2022/12/30 00:36:23;;;;;;;7.73;1.27;;;6.70;99.90;;;;;;5078414;28;20209;-60
2022/12/30 00:38:50;;;;;;;4.67;1.37;;;6.70;99.90;;;;;;5058387;28;20245;-61
2022/12/30 00:44:03;;;;;;;7.90;1.20;;;6.60;99.90;;;;;;5078039;28;20646;-60
2022/12/30 00:46:31;;;;;;;5.60;1.60;;;6.60;99.90;;;;;;5077704;28;20274;-60
2022/12/30 00:57:13;;;;;;;5.20;1.40;;;6.50;99.90;;;;;;5077863;28;20198;-61
2022/12/30 00:59:40;;;;;;;6.90;1.53;;;6.50;99.90;;;;;;5078293;28;20550;-61
2022/12/30 01:02:07;;;;;;;6.97;1.50;;;6.50;99.90;;;;;;5076666;28;20447;-61
2022/12/30 01:04:34;;;;;;;7.63;2.10;;;6.50;99.90;;;;;;5076067;28;20206;-61
2022/12/30 01:07:01;;;;;;;13.63;2.23;;;6.40;99.90;;;;;;5076664;28;20202;-61
2022/12/30 01:09:28;;;;;;;8.87;1.60;;;6.40;99.90;;;;;;5078010;28;20284;-62
2022/12/30 01:12:10;;;;;;;7.60;1.43;;;6.30;99.90;;;;;;5076687;28;20347;-61
2022/12/30 01:14:39;;;;;;;9.17;1.80;;;6.30;99.90;;;;;;5076088;28;20201;-61
2022/12/30 01:17:08;;;;;;;2.60;1.30;;;6.40;99.90;;;;;;5076506;28;20195;-62
2022/12/30 01:19:36;;;;;;;5.53;1.37;;;6.30;99.90;;;;;;5077862;28;20273;-61
2022/12/30 01:22:04;;;;;;;13.13;2.10;;;6.30;99.90;;;;;;5077132;28;20248;-61
2022/12/30 01:24:30;;;;;;;14.40;2.10;;;6.20;99.90;;;;;;5076445;28;20282;-61
2022/12/30 01:26:57;;;;;;;9.10;1.57;;;6.20;99.90;;;;;;5074856;28;20238;-61
2022/12/30 01:29:38;;;;;;;4.90;1.70;;;6.20;99.90;;;;;;5073563;28;20192;-61
2022/12/30 01:32:17;;;;;;;8.63;1.93;;;6.20;99.90;;;;;;5059221;28;20195;-61
2022/12/30 01:34:44;;;;;;;9.07;1.83;;;6.20;99.90;;;;;;5075305;28;20694;-61
2022/12/30 01:37:12;;;;;;;12.77;2.30;;;6.20;99.90;;;;;;5075764;28;20191;-61
2022/12/30 01:39:39;;;;;;;7.83;1.97;;;6.20;99.90;;;;;;5067544;28;20660;-61
2022/12/30 01:42:21;;;;;;;5.67;1.90;;;6.20;99.90;;;;;;5051373;28;20203;-61
2022/12/30 01:45:10;;;;;;;6.67;1.83;;;6.20;99.90;;;;;;5070581;28;20289;-60
2022/12/30 01:47:55;;;;;;;11.80;3.30;;;6.20;99.90;;;;;;5071192;28;20286;-64
2022/12/30 01:50:24;;;;;;;9.80;1.83;;;6.20;99.90;;;;;;5073319;28;20199;-60
2022/12/30 01:52:57;;;;;;;8.00;2.03;;;6.20;99.90;;;;;;5076725;28;20219;-61
2022/12/30 01:55:37;;;;;;;5.13;1.50;;;6.20;99.90;;;;;;5075382;28;20222;-61
2022/12/30 01:58:09;;;;;;;8.07;2.10;;;6.20;99.90;;;;;;5072319;28;20252;-60
2022/12/30 02:00:36;;;;;;;6.43;1.97;;;6.20;99.90;;;;;;5072913;28;20205;-60
2022/12/30 02:03:04;;;;;;;11.57;2.20;;;6.20;99.90;;;;;;5071477;28;20270;-61
2022/12/30 02:05:35;;;;;;;5.73;1.97;;;6.20;99.90;;;;;;5072974;28;20219;-61
2022/12/30 02:08:14;;;;;;;12.70;2.40;;;6.20;99.90;;;;;;5076437;28;20658;-60
2022/12/30 02:10:45;;;;;;;8.80;1.50;;;6.20;99.90;;;;;;5073936;28;20589;-60
2022/12/30 02:13:13;;;;;;;8.03;2.23;;;6.20;99.90;;;;;;5075807;28;20211;-60
2022/12/30 02:16:12;;;;;;;9.53;2.10;;;6.20;99.90;;;;;;5074015;28;20199;-60
2022/12/30 02:18:57;;;;;;;5.63;1.77;;;6.20;99.90;;;;;;5073033;28;20194;-60
2022/12/30 02:21:48;;;;;;;6.10;1.80;;;6.20;99.90;;;;;;5056367;28;20235;-60
2022/12/30 02:24:52;;;;;;;8.17;1.73;;;6.20;99.90;;;;;;5073689;28;20299;-60
2022/12/30 02:27:34;;;;;;;8.53;1.70;;;6.20;99.90;;;;;;5052768;28;20284;-60
2022/12/30 02:30:22;;;;;;;9.47;1.70;;;6.10;99.90;;;;;;5055320;28;20657;-60
2022/12/30 02:33:08;;;;;;;11.93;2.23;;;6.20;99.90;;;;;;5053507;28;20308;-60
2022/12/30 02:36:12;;;;;;;11.30;2.30;;;6.20;99.90;;;;;;5055652;28;20221;-60
2022/12/30 02:38:53;;;;;;;11.80;2.20;;;6.10;99.90;;;;;;5055259;28;20466;-60
2022/12/30 02:44:44;;;;;;;7.13;1.70;;;6.10;99.90;;;;;;5053993;28;20212;-61
2022/12/30 02:47:19;;;;;;;5.73;1.50;;;6.20;99.90;;;;;;5053597;28;20199;-61
2022/12/30 02:52:42;;;;;;;10.47;1.67;;;6.10;99.90;;;;;;5019214;28;20537;-63
2022/12/30 02:55:09;;;;;;;5.70;1.93;;;6.10;99.90;;;;;;5054258;28;20214;-63
2022/12/30 02:57:35;;;;;;;6.13;2.47;;;6.10;99.90;;;;;;5052845;28;20214;-60
2022/12/30 03:03:58;;;;;;;13.60;1.90;;;6.10;99.90;;;;;;5051514;28;20238;-60
2022/12/30 03:06:27;;;;;;;7.63;1.40;;;6.10;99.90;;;;;;5042619;28;20229;-60
2022/12/30 03:09:27;;;;;;;8.20;2.20;;;6.10;99.90;;;;;;5054452;28;20302;-60
2022/12/30 03:12:21;;;;;;;10.10;2.23;;;6.00;99.90;;;;;;5053965;28;20220;-61
2022/12/30 03:14:54;;;;;;;9.30;1.77;;;6.00;99.90;;;;;;5040035;28;20252;-59
2022/12/30 03:17:30;;;;;;;13.03;1.90;;;6.00;99.90;;;;;;5029540;28;20235;-61
2022/12/30 03:20:02;;;;;;;4.97;1.37;;;6.00;99.90;;;;;;5060065;28;20234;-60
2022/12/30 03:28:10;;;;;;;5.13;1.40;;;6.00;99.90;;;;;;5079461;28;20286;-60
2022/12/30 03:30:44;;;;;;;5.33;1.70;;;6.00;99.90;;;;;;5079864;28;20202;-62
2022/12/30 03:33:12;;;;;;;4.50;1.37;;;5.90;99.90;;;;;;5076683;28;20202;-60
2022/12/30 03:35:51;;;;;;;9.07;1.83;;;6.00;99.90;;;;;;5080074;28;20207;-60
2022/12/30 03:38:24;;;;;;;6.30;1.80;;;6.00;99.90;;;;;;5077581;28;20634;-60
2022/12/30 03:40:55;;;;;;;5.60;1.53;;;5.90;99.90;;;;;;5080312;28;20573;-60
2022/12/30 03:43:24;;;;;;;6.97;2.13;;;5.90;99.90;;;;;;5077591;28;20217;-60
2022/12/30 03:45:50;;;;;;;10.40;1.80;;;5.90;99.90;;;;;;5079167;28;20194;-60
2022/12/30 03:48:17;;;;;;;6.13;1.47;;;5.80;99.90;;;;;;5077587;28;20222;-63
2022/12/30 03:50:45;;;;;;;7.67;1.97;;;5.80;99.90;;;;;;5078419;28;20561;-59
2022/12/30 03:53:11;;;;;;;10.10;1.77;;;5.80;99.90;;;;;;5076470;28;20286;-60
2022/12/30 03:55:38;;;;;;;7.03;2.40;;;5.80;99.90;;;;;;5077654;28;20565;-60
2022/12/30 03:58:05;;;;;;;9.47;2.03;;;5.80;99.90;;;;;;5078040;28;20699;-60
2022/12/30 04:00:32;;;;;;;11.43;1.90;;;5.80;99.90;;;;;;5077066;28;20229;-61
2022/12/30 04:02:58;;;;;;;9.30;2.53;;;5.80;99.90;;;;;;5074098;28;20338;-59
2022/12/30 04:05:25;;;;;;;8.83;2.00;;;5.80;99.90;;;;;;5079135;28;20194;-60
2022/12/30 04:07:52;;;;;;;7.50;1.80;;;5.80;99.90;;;;;;5075826;28;20666;-60
2022/12/30 04:10:19;;;;;;;4.53;1.53;;;5.80;99.90;;;;;;5079855;28;20285;-60
2022/12/30 04:12:45;;;;;;;4.17;1.57;;;5.80;99.90;;;;;;5076920;28;20206;-60
2022/12/30 04:15:12;;;;;;;11.63;2.50;;;5.70;99.90;;;;;;5077522;28;20203;-60
2022/12/30 04:17:39;;;;;;;5.97;1.93;;;5.70;99.90;;;;;;5055689;28;20632;-61
2022/12/30 04:20:06;;;;;;;13.00;1.90;;;5.70;99.90;;;;;;5078792;28;20202;-61
2022/12/30 04:22:33;;;;;;;7.73;1.50;;;5.60;99.90;;;;;;5056698;28;20213;-60
2022/12/30 04:25:00;;;;;;;9.90;2.00;;;5.60;99.90;;;;;;5077498;28;20707;-61
2022/12/30 04:27:27;;;;;;;6.70;2.03;;;5.60;99.90;;;;;;5077037;28;20562;-60
2022/12/30 04:29:53;;;;;;;10.80;2.30;;;5.60;99.90;;;;;;5074405;28;20337;-61
2022/12/30 04:32:20;;;;;;;5.23;1.50;;;5.50;99.90;;;;;;5076860;28;20623;-61
2022/12/30 04:34:47;;;;;;;9.07;1.90;;;5.50;99.90;;;;;;5060687;28;20195;-61
2022/12/30 04:37:13;;;;;;;9.70;2.17;;;5.50;99.90;;;;;;5079897;28;20209;-60
2022/12/30 04:39:40;;;;;;;15.40;1.87;;;5.50;99.90;;;;;;5057477;28;20207;-60
2022/12/30 04:42:07;;;;;;;6.00;1.73;;;5.50;99.90;;;;;;5075548;28;20202;-64
2022/12/30 04:44:34;;;;;;;12.10;2.03;;;5.50;99.90;;;;;;5077559;28;20221;-60
2022/12/30 04:47:00;;;;;;;8.73;1.70;;;5.50;99.90;;;;;;5075850;28;20608;-60
2022/12/30 04:49:27;;;;;;;8.63;2.30;;;5.40;99.90;;;;;;5074378;28;20209;-60
2022/12/30 04:51:54;;;;;;;6.33;1.77;;;5.50;99.90;;;;;;5061668;28;20200;-61
2022/12/30 04:54:21;;;;;;;7.40;1.70;;;5.50;99.90;;;;;;5076058;28;20195;-60
2022/12/30 04:56:47;;;;;;;7.73;1.80;;;5.50;99.90;;;;;;5062112;28;20199;-60
2022/12/30 04:59:14;;;;;;;5.47;1.40;;;5.40;99.90;;;;;;5058603;28;20198;-61
2022/12/30 05:01:41;;;;;;;7.23;1.77;;;5.40;99.90;;;;;;5077281;28;20210;-60
2022/12/30 05:04:16;;;;;;;15.97;2.37;;;5.40;99.90;;;;;;5077445;28;20226;-61
2022/12/30 05:06:42;;;;;;;4.60;1.50;;;5.40;99.90;;;;;;5077689;28;20195;-59
2022/12/30 05:09:09;;;;;;;6.50;1.67;;;5.40;99.90;;;;;;5075716;28;20200;-61
2022/12/30 05:11:36;;;;;;;10.30;2.40;;;5.40;99.90;;;;;;5058536;28;20211;-60
2022/12/30 05:14:03;;;;;;;7.33;1.80;;;5.40;99.90;;;;;;5078511;28;20209;-59
2022/12/30 05:16:30;;;;;;;7.57;1.60;;;5.40;99.90;;;;;;5076685;28;20622;-60
2022/12/30 05:18:56;;;;;;;12.27;1.83;;;5.40;99.90;;;;;;5075160;28;20572;-60
2022/12/30 05:21:23;;;;;;;13.80;1.90;;;5.40;99.90;;;;;;5074564;28;20198;-60
2022/12/30 05:26:36;;;;;;;6.73;1.87;;;5.40;99.90;;;;;;5076652;28;20241;-64
2022/12/30 05:29:02;;;;;;;6.03;2.00;;;5.50;99.90;;;;;;5076031;28;20194;-59
2022/12/30 05:31:29;;;;;;;8.10;1.73;;;5.50;99.90;;;;;;5078359;28;20662;-60
2022/12/30 05:33:56;;;;;;;8.63;2.03;;;5.50;99.90;;;;;;5073181;28;20210;-60
2022/12/30 05:36:27;;;;;;;8.77;2.03;;;5.50;99.90;;;;;;5077854;28;20276;-59
2022/12/30 05:38:54;;;;;;;8.83;2.10;;;5.50;99.90;;;;;;5074389;28;20198;-61
2022/12/30 05:41:21;;;;;;;11.83;2.87;;;5.40;99.90;;;;;;5077538;28;20289;-60
2022/12/30 05:43:48;;;;;;;12.60;2.60;;;5.50;99.90;;;;;;5074170;28;20222;-59
2022/12/30 05:46:15;;;;;;;12.47;2.20;;;5.40;99.90;;;;;;5076253;28;20600;-60
2022/12/30 05:48:42;;;;;;;9.87;2.60;;;5.50;99.90;;;;;;5075892;28;20205;-60
2022/12/30 05:51:09;;;;;;;10.40;2.40;;;5.40;99.90;;;;;;5076139;28;20263;-59
2022/12/30 05:53:36;;;;;;;8.83;2.67;;;5.30;99.90;;;;;;5076117;28;20210;-60
2022/12/30 05:56:03;;;;;;;6.23;2.80;;;5.40;99.90;;;;;;5078120;28;20201;-59
2022/12/30 05:58:30;;;;;;;11.07;3.37;;;5.40;99.90;;;;;;5058001;28;20218;-60
2022/12/30 06:00:57;;;;;;;9.03;2.27;;;5.40;99.90;;;;;;5076821;28;20194;-61
2022/12/30 06:03:24;;;;;;;9.40;2.10;;;5.30;99.90;;;;;;5075703;28;20211;-63
2022/12/30 06:05:59;;;;;;;10.90;2.53;;;5.30;99.90;;;;;;5076668;28;20560;-60
2022/12/30 06:08:25;;;;;;;7.80;2.57;;;5.30;99.90;;;;;;5072697;28;20191;-61
2022/12/30 06:10:52;;;;;;;7.13;1.90;;;5.30;99.90;;;;;;5057884;28;20705;-59
2022/12/30 06:13:19;;;;;;;11.07;2.70;;;5.30;99.90;;;;;;5069688;28;20202;-60
2022/12/30 06:15:46;;;;;;;9.30;2.13;;;5.30;99.90;;;;;;5070540;28;20202;-61
2022/12/30 06:18:13;;;;;;;8.70;2.43;;;5.40;99.90;;;;;;5069931;28;20205;-60
2022/12/30 06:20:40;;;;;;;10.97;2.60;;;5.30;99.90;;;;;;5073243;28;20611;-60
2022/12/30 06:23:07;;;;;;;10.23;2.37;;;5.30;99.90;;;;;;5072621;28;20620;-60
2022/12/30 06:25:34;;;;;;;6.60;2.17;;;5.40;99.90;;;;;;5072966;28;20332;-60
2022/12/30 06:28:01;;;;;;;8.70;2.23;;;5.40;99.90;;;;;;5058139;28;20653;-59
2022/12/30 06:30:29;;;;;;;8.77;2.50;;;5.40;99.90;;;;;;5074876;28;20219;-60
2022/12/30 06:32:59;;;;;;;14.77;3.57;;;5.40;99.90;;;;;;5071626;28;20211;-60
2022/12/30 06:35:26;;;;;;;5.37;1.60;;;5.40;99.90;;;;;;5072956;28;20195;-62
2022/12/30 06:37:52;;;;;;;9.33;2.40;;;5.40;99.90;;;;;;5068867;28;20320;-60
2022/12/30 06:40:20;;;;;;;10.47;2.97;;;5.40;99.90;;;;;;5071561;28;20207;-60
2022/12/30 06:42:47;;;;;;;11.30;2.43;;;5.50;99.90;;;;;;5057665;28;20308;-61
2022/12/30 06:45:14;;;;;;;8.90;2.60;;;5.50;99.90;;;;;;5073483;28;20582;-60
2022/12/30 06:47:41;;;;;;;11.60;2.60;;;5.50;99.90;;;;;;5074333;28;20698;-58
2022/12/30 06:50:08;;;;;;;8.07;2.53;;;5.50;99.90;;;;;;4698662;28;9999881;-63
2022/12/30 06:52:35;;;;;;;15.47;3.17;;;5.60;99.90;;;;;;5066397;28;20212;-62
2022/12/30 06:55:02;;;;;;;8.10;1.83;;;5.60;99.90;;;;;;5069988;28;20211;-60
2022/12/30 06:57:29;;;;;;;9.10;2.60;;;5.60;99.90;;;;;;5067694;28;20205;-61
2022/12/30 06:59:55;;;;;;;8.87;2.63;;;5.60;99.90;;;;;;5072313;28;20202;-62
2022/12/30 07:02:22;;;;;;;10.43;2.80;;;5.50;99.90;;;;;;5067531;28;20207;-62
2022/12/30 07:04:49;;;;;;;3.57;1.50;;;5.50;99.90;;;;;;5074141;28;20229;-61
2022/12/30 07:07:16;;;;;;;7.50;1.93;;;5.50;99.90;;;;;;5071917;28;20290;-59
2022/12/30 07:09:43;;;;;;;6.10;2.10;;;5.50;99.90;;;;;;5074788;28;20197;-59
2022/12/30 07:12:09;;;;;;;10.53;2.47;;;5.50;99.90;;;;;;5058951;28;20226;-63
2022/12/30 07:14:36;;;;;;;7.10;1.83;;;5.50;99.90;;;;;;5071002;28;20857;-59
2022/12/30 07:17:03;;;;;;;4.47;1.73;;;5.60;99.90;;;;;;5073252;28;20203;-59
2022/12/30 07:19:30;;;;;;;8.63;1.93;;;5.60;99.90;;;;;;5073082;28;20629;-63
2022/12/30 07:21:56;;;;;;;6.80;2.40;;;5.60;99.90;;;;;;5073192;28;20234;-60
2022/12/30 07:24:23;;;;;;;11.30;1.97;;;5.60;99.90;;;;;;5058318;28;20211;-60
2022/12/30 07:26:50;;;;;;;4.13;1.83;;;5.70;99.90;;;;;;5071914;28;20610;-59
2022/12/30 07:29:17;;;;;;;10.03;2.07;;;5.60;99.90;;;;;;5062016;28;20314;-60
2022/12/30 07:31:44;;;;;;;8.63;2.50;;;5.70;99.90;;;;;;5078620;28;20229;-59
2022/12/30 07:34:10;;;;;;;4.77;2.00;;;5.70;99.90;;;;;;5078642;28;20373;-59
2022/12/30 07:36:37;;;;;;;5.90;2.00;;;5.60;99.90;;;;;;5078597;28;20233;-60
2022/12/30 07:39:04;;;;;;;5.63;2.43;;;5.60;99.90;;;;;;5079910;28;20202;-61
2022/12/30 07:41:31;;;;;;;6.60;1.80;;;5.70;99.90;;;;;;5079720;28;20300;-60
2022/12/30 07:43:57;;;;;;;7.33;2.10;;;5.60;99.90;;;;;;5080035;28;20699;-60
2022/12/30 07:46:24;;;;;;;5.03;2.33;;;5.70;99.90;;;;;;5067409;28;20199;-60
2022/12/30 07:48:51;;;;;;;7.40;2.10;;;5.80;99.90;;;;;;5061166;28;20205;-60
2022/12/30 07:51:18;;;;;;;4.47;1.70;;;5.80;99.90;;;;;;5079032;28;20202;-60
2022/12/30 07:53:45;;;;;;;11.03;2.00;;;5.80;99.90;;;;;;5078495;28;20191;-60
2022/12/30 07:56:13;;;;;;;10.30;1.90;;;5.80;99.90;;;;;;5080651;28;20281;-60
2022/12/30 07:58:40;;;;;;;4.20;1.30;;;5.80;99.90;;;;;;5078846;28;20207;-60
2022/12/30 08:01:09;;;;;;;6.60;2.93;;;5.80;99.90;;;;;;5078807;28;20271;-60
2022/12/30 08:03:37;;;;;;;6.40;2.30;;;5.80;99.90;;;;;;5079646;28;20203;-60
2022/12/30 08:06:06;;;;;;;6.47;1.90;;;5.80;99.90;;;;;;5061559;28;20273;-60
2022/12/30 08:08:34;;;;;;;6.83;1.93;;;5.90;99.90;;;;;;5073662;28;20198;-60
2022/12/30 08:11:02;;;;;;;8.90;2.07;;;6.00;99.90;;;;;;5068977;28;20293;-61
2022/12/30 08:13:34;;;;;;;7.33;2.27;;;6.00;99.90;;;;;;5079103;28;20294;-60
2022/12/30 08:16:27;;;;;;;8.97;1.67;;;6.00;99.90;;;;;;5077890;28;20210;-60
2022/12/30 08:18:54;;;;;;;5.20;1.90;;;6.00;99.90;;;;;;5073355;28;20210;-60
2022/12/30 08:21:21;;;;;;;4.83;1.40;;;6.00;99.90;;;;;;5077220;28;20281;-61
2022/12/30 08:23:48;;;;;;;5.77;1.40;;;6.10;99.90;;;;;;5079028;28;20688;-61
2022/12/30 08:26:20;;;;;;;6.70;1.97;;;6.10;99.90;;;;;;5079721;28;20317;-60
2022/12/30 08:28:48;;;;;;;6.83;1.80;;;6.20;99.90;;;;;;5074502;28;20201;-61
2022/12/30 08:31:18;;;;;;;7.03;1.77;;;6.20;99.90;;;;;;5079543;28;20311;-60
2022/12/30 08:33:45;;;;;;;5.20;1.60;;;6.30;99.90;;;;;;5076342;28;20253;-59
2022/12/30 08:36:14;;;;;;;8.13;2.07;;;6.30;99.90;;;;;;5078414;28;20215;-62
2022/12/30 08:38:45;;;;;;;3.57;1.63;;;6.40;99.90;;;;;;5076555;28;20213;-60
2022/12/30 08:41:21;;;;;;;5.63;1.73;;;6.40;99.90;;;;;;5077154;28;20205;-60
2022/12/30 08:43:49;;;;;;;5.80;1.43;;;6.50;99.90;;;;;;5076369;28;20221;-59
2022/12/30 08:46:17;;;;;;;3.07;1.47;;;6.50;99.90;;;;;;5078357;28;20201;-60
2022/12/30 08:48:45;;;;;;;5.13;1.17;;;6.60;99.90;;;;;;5075961;28;20741;-59
2022/12/30 08:51:13;;;;;;;3.50;1.17;;;6.60;99.90;;;;;;5076888;28;20283;-60
2022/12/30 08:53:40;;;;;;;5.17;2.40;;;6.70;99.90;;;;;;5073648;28;20199;-61
2022/12/30 08:56:19;;;;;;;5.40;2.60;;;6.70;99.90;;;;;;5069097;28;20561;-60
2022/12/30 08:58:46;;;;;;;3.83;1.27;;;6.80;99.90;;;;;;5064782;28;20280;-61
2022/12/30 09:01:19;;;;;;;6.73;1.20;;;6.80;99.90;;;;;;5074902;28;20685;-60
2022/12/30 09:03:47;;;;;;;6.00;1.37;;;6.80;99.90;;;;;;5077168;28;20222;-60
2022/12/30 09:06:16;;;;;;;3.63;1.37;;;6.90;99.90;;;;;;5075368;28;20334;-60
2022/12/30 09:08:44;;;;;;;2.33;1.10;;;6.90;99.90;;;;;;5053384;28;20223;-60
2022/12/30 09:11:15;;;;;;;7.20;1.33;;;7.00;99.90;;;;;;5074242;28;20230;-60
2022/12/30 09:13:42;;;;;;;4.27;1.47;;;7.00;99.90;;;;;;5071459;28;20204;-62
2022/12/30 09:16:12;;;;;;;5.37;1.40;;;7.00;99.90;;;;;;5071509;28;20205;-60
2022/12/30 09:18:40;;;;;;;7.17;1.77;;;7.10;99.90;;;;;;5068718;28;20914;-61
2022/12/30 09:21:07;;;;;;;3.27;1.30;;;7.10;99.90;;;;;;5071931;28;20655;-60
2022/12/30 09:23:34;;;;;;;5.47;1.50;;;7.20;99.90;;;;;;5073926;28;20244;-60
2022/12/30 09:26:02;;;;;;;3.77;1.27;;;7.20;99.90;;;;;;5074432;28;20332;-59
2022/12/30 09:28:29;;;;;;;2.67;1.10;;;7.20;99.90;;;;;;5077021;28;20691;-59
2022/12/30 09:30:56;;;;;;;2.67;1.30;;;7.30;99.90;;;;;;5077266;28;20194;-60
2022/12/30 09:33:23;;;;;;;3.90;1.30;;;7.30;99.90;;;;;;5072267;28;20205;-61
2022/12/30 09:35:50;;;;;;;5.57;1.83;;;7.40;99.90;;;;;;5071367;28;20278;-60
2022/12/30 09:38:17;;;;;;;4.40;1.40;;;7.40;99.90;;;;;;5071459;28;20217;-60
2022/12/30 09:41:05;;;;;;;4.13;1.47;;;7.40;99.90;;;;;;5071702;28;20206;-62
2022/12/30 09:44:03;;;;;;;3.27;1.40;;;7.50;99.90;;;;;;5064949;28;20288;-61
2022/12/30 09:46:48;;;;;;;5.80;1.60;;;7.50;99.90;;;;;;5067635;28;20285;-61
2022/12/30 09:49:38;;;;;;;9.50;2.20;;;7.60;99.90;;;;;;5069469;28;20194;-63
2022/12/30 09:52:27;;;;;;;4.03;1.40;;;7.60;99.90;;;;;;5065023;28;20239;-62
2022/12/30 09:55:09;;;;;;;4.97;1.37;;;7.60;99.90;;;;;;5076433;28;20282;-61
2022/12/30 09:57:37;;;;;;;3.67;1.13;;;7.60;99.90;;;;;;5066384;28;20195;-62
2022/12/30 10:00:12;;;;;;;4.13;1.40;;;7.70;99.90;;;;;;5060825;28;22210;-61
2022/12/30 10:02:48;;;;;;;3.87;1.03;;;7.70;99.90;;;;;;5064918;28;20206;-61
2022/12/30 10:05:15;;;;;;;2.87;1.03;;;7.80;99.90;;;;;;5073231;28;20219;-61
2022/12/30 10:08:11;;;;;;;2.43;1.23;;;7.80;99.90;;;;;;5072442;28;21128;-61
2022/12/30 10:10:47;;;;;;;5.33;1.10;;;7.80;99.90;;;;;;5076518;28;20230;-60
2022/12/30 10:13:57;;;;;;;3.20;0.90;;;7.80;99.90;;;;;;5078085;28;20563;-61
2022/12/30 10:16:51;;;;;;;1.07;0.83;;;7.90;99.90;;;;;;5024419;28;20619;-60
2022/12/30 10:19:49;;;;;;;2.00;1.23;;;7.90;99.90;;;;;;5070579;28;20217;-62
2022/12/30 10:22:19;;;;;;;2.50;1.33;;;8.00;99.90;;;;;;5078298;28;20198;-60
2022/12/30 10:25:04;;;;;;;5.73;0.90;;;8.00;99.90;;;;;;5081085;28;20627;-60
2022/12/30 10:27:55;;;;;;;5.63;1.00;;;8.10;99.90;;;;;;5079629;28;20718;-61
2022/12/30 10:30:26;;;;;;;2.63;0.73;;;8.10;99.90;;;;;;5077628;28;21269;-60
2022/12/30 10:32:56;;;;;;;2.10;1.10;;;8.20;99.90;;;;;;5077457;28;20195;-60
2022/12/30 10:35:25;;;;;;;3.90;0.73;;;8.20;99.90;;;;;;5078287;28;20202;-62
2022/12/30 10:37:59;;;;;;;3.13;1.13;;;8.20;99.90;;;;;;5075978;28;22298;-61
2022/12/30 10:40:51;;;;;;;2.80;1.00;;;8.20;99.90;;;;;;5080067;28;20207;-62
2022/12/30 10:43:52;;;;;;;5.33;1.00;;;8.30;99.90;;;;;;5077408;28;20214;-62
2022/12/30 10:46:27;;;;;;;4.10;1.00;;;8.30;99.90;;;;;;5077062;28;20269;-63
2022/12/30 10:49:13;;;;;;;3.50;0.87;;;8.30;99.90;;;;;;5075929;28;20237;-62
2022/12/30 10:51:41;;;;;;;4.30;1.43;;;8.30;99.90;;;;;;5075420;28;20211;-62
2022/12/30 10:54:09;;;;;;;2.23;0.93;;;8.40;99.90;;;;;;5075002;28;20193;-63
2022/12/30 10:56:37;;;;;;;3.77;1.17;;;8.40;99.90;;;;;;5077507;28;20281;-70
2022/12/30 10:59:10;;;;;;;4.73;1.23;;;8.40;99.90;;;;;;5076956;28;20215;-64
2022/12/30 11:01:38;;;;;;;3.47;0.90;;;8.40;99.90;;;;;;5079275;28;20341;-63
2022/12/30 11:04:05;;;;;;;3.93;0.90;;;8.50;99.90;;;;;;5077569;28;20196;-62
2022/12/30 11:06:37;;;;;;;4.60;1.30;;;8.50;99.90;;;;;;5076980;28;20238;-62
2022/12/30 11:09:13;;;;;;;2.73;0.73;;;8.50;99.90;;;;;;5086082;28;20656;-61
2022/12/30 11:15:07;;;;;;;1.40;0.83;;;8.60;99.90;;;;;;5078870;28;20291;-63
2022/12/30 11:17:45;;;;;;;7.07;1.03;;;8.70;99.90;;;;;;5072284;28;20327;-63
2022/12/30 11:20:30;;;;;;;2.47;0.90;;;8.70;99.90;;;;;;5065667;28;20231;-63
2022/12/30 11:22:59;;;;;;;4.60;1.07;;;8.70;99.90;;;;;;5069534;28;20223;-64
2022/12/30 11:25:59;;;;;;;6.50;1.87;;;8.70;99.90;;;;;;5072610;28;20356;-63
2022/12/30 11:28:33;;;;;;;4.63;0.93;;;8.80;99.90;;;;;;5040433;28;21909;-63
2022/12/30 11:31:09;;;;;;;1.77;1.00;;;8.80;99.90;;;;;;5067720;28;20204;-63
2022/12/30 11:33:39;;;;;;;7.10;1.30;;;8.80;99.90;;;;;;5075646;28;20231;-65
2022/12/30 11:36:32;;;;;;;3.33;0.90;;;8.90;99.90;;;;;;5070664;28;20201;-63
2022/12/30 11:39:05;;;;;;;3.33;0.83;;;8.90;99.90;;;;;;5062069;28;20215;-63
2022/12/30 11:41:34;;;;;;;3.97;0.90;;;8.90;99.90;;;;;;5072700;28;20306;-64
2022/12/30 11:44:01;;;;;;;3.83;1.10;;;8.90;99.90;;;;;;5073999;28;20242;-63
2022/12/30 11:46:35;;;;;;;6.10;0.93;;;8.90;99.90;;;;;;5067671;28;20218;-64
2022/12/30 11:49:22;;;;;;;6.27;1.57;;;9.00;99.90;;;;;;5077734;28;20564;-65
2022/12/30 11:51:51;;;;;;;4.43;0.97;;;9.00;99.90;;;;;;5071909;28;20355;-63
2022/12/30 11:54:22;;;;;;;5.37;1.00;;;9.00;99.90;;;;;;5080319;28;20515;-63
2022/12/30 11:56:59;;;;;;;5.33;1.00;;;9.10;99.90;;;;;;5079958;28;20202;-63
2022/12/30 11:59:36;;;;;;;6.13;0.90;;;9.10;99.90;;;;;;5079877;28;20208;-63
2022/12/30 12:02:17;;;;;;;5.03;1.33;;;9.10;99.90;;;;;;5077723;28;20242;-62
2022/12/30 12:04:44;;;;;;;7.57;1.13;;;9.10;99.90;;;;;;5079618;28;20209;-66
2022/12/30 12:07:16;;;;;;;3.60;1.13;;;9.10;99.90;;;;;;5077034;28;20215;-63
2022/12/30 12:09:46;;;;;;;3.47;1.00;;;9.20;99.90;;;;;;5078833;28;20944;-63
2022/12/30 12:12:17;;;;;;;3.83;0.80;;;9.20;99.90;;;;;;5078116;28;20231;-63
2022/12/30 12:15:25;;;;;;;5.83;0.93;;;9.30;99.90;;;;;;5079425;28;20678;-62
2022/12/30 12:18:08;;;;;;;8.37;1.30;;;9.30;99.90;;;;;;5065416;28;20877;-63
2022/12/30 12:21:12;;;;;;;4.93;1.50;;;9.30;99.90;;;;;;5079311;28;20276;-63
2022/12/30 12:23:49;;;;;;;2.80;0.80;;;9.30;99.90;;;;;;5079840;28;21037;-62
2022/12/30 12:26:22;;;;;;;5.33;1.17;;;9.20;99.90;;;;;;5079703;28;20244;-62
2022/12/30 12:28:52;;;;;;;4.90;1.00;;;9.30;99.90;;;;;;5072641;28;20206;-64
2022/12/30 12:31:34;;;;;;;4.13;0.97;;;9.20;99.90;;;;;;5076280;28;20201;-63
2022/12/30 12:34:22;;;;;;;8.47;1.70;;;9.20;99.90;;;;;;5077426;28;20195;-62
2022/12/30 12:36:49;;;;;;;3.03;1.13;;;9.10;99.90;;;;;;5069121;28;20209;-63
2022/12/30 12:39:42;;;;;;;4.40;0.97;;;9.20;99.90;;;;;;5069390;28;20749;-63
2022/12/30 12:42:12;;;;;;;6.33;2.07;;;9.10;99.90;;;;;;5070435;28;20232;-62
2022/12/30 12:45:12;;;;;;;6.20;0.70;;;9.00;99.90;;;;;;5065391;28;20231;-63
2022/12/30 12:47:50;;;;;;;7.47;1.70;;;9.00;99.90;;;;;;5072375;28;20192;-62
2022/12/30 12:50:32;;;;;;;5.37;1.20;;;9.00;99.90;;;;;;5077809;28;20196;-62
2022/12/30 12:53:43;;;;;;;4.07;0.87;;;9.00;99.90;;;;;;5074792;28;20202;-61
2022/12/30 12:56:28;;;;;;;2.70;1.00;;;9.00;99.90;;;;;;5072526;28;21097;-62
2022/12/30 12:59:47;;;;;;;4.77;0.87;;;8.90;99.90;;;;;;5063939;28;20207;-62
2022/12/30 13:02:50;;;;;;;4.90;1.03;;;8.90;99.90;;;;;;5027847;28;20216;-65
2022/12/30 13:05:21;;;;;;;2.47;0.87;;;8.90;99.90;;;;;;5071045;28;20222;-64
2022/12/30 13:07:56;;;;;;;3.33;1.17;;;8.90;99.90;;;;;;5062066;28;20194;-63
2022/12/30 13:11:22;;;;;;;4.33;0.73;;;8.90;99.90;;;;;;5066601;28;20590;-62
2022/12/30 13:14:09;;;;;;;3.07;1.03;;;8.80;99.90;;;;;;5065756;28;20262;-63
2022/12/30 13:16:41;;;;;;;6.03;1.03;;;8.80;99.90;;;;;;5067434;28;20213;-63
2022/12/30 13:19:14;;;;;;;3.73;0.73;;;8.80;99.90;;;;;;5071567;28;20247;-62
2022/12/30 13:21:44;;;;;;;1.70;0.70;;;8.80;99.90;;;;;;5071460;28;20354;-63
2022/12/30 13:24:36;;;;;;;2.00;0.90;;;8.80;99.90;;;;;;5072663;28;20222;-62
2022/12/30 13:27:06;;;;;;;3.43;1.03;;;8.80;99.90;;;;;;5074554;28;20415;-63
2022/12/30 13:29:35;;;;;;;2.73;1.80;;;8.70;99.90;;;;;;5073203;28;20203;-63
2022/12/30 13:32:18;;;;;;;4.43;1.10;;;8.70;99.90;;;;;;5073106;28;20286;-62
2022/12/30 13:35:01;;;;;;;3.50;0.90;;;8.80;99.90;;;;;;5072095;28;20201;-62
2022/12/30 13:37:41;;;;;;;2.80;0.77;;;8.80;99.90;;;;;;5075637;28;20209;-62
2022/12/30 13:40:16;;;;;;;1.57;0.70;;;8.80;99.90;;;;;;5070893;28;20200;-63
2022/12/30 13:42:55;;;;;;;6.03;1.00;;;8.80;99.90;;;;;;5074355;28;20299;-62
2022/12/30 13:45:28;;;;;;;2.90;0.60;;;8.80;99.90;;;;;;5071844;28;20315;-62
2022/12/30 13:48:09;;;;;;;3.43;0.83;;;8.80;99.90;;;;;;5072949;28;20204;-62
2022/12/30 13:50:39;;;;;;;3.80;0.93;;;8.70;99.90;;;;;;5074554;28;20223;-62
2022/12/30 13:53:43;;;;;;;4.57;0.97;;;8.70;99.90;;;;;;5088155;28;20214;-63
2022/12/30 13:56:13;;;;;;;4.07;1.23;;;8.70;99.90;;;;;;5068784;28;20213;-62
2022/12/30 13:58:52;;;;;;;1.83;1.10;;;8.70;99.90;;;;;;5065853;28;20233;-64
2022/12/30 14:01:19;;;;;;;2.80;0.83;;;8.70;99.90;;;;;;5067314;28;20205;-62
2022/12/30 14:04:10;;;;;;;2.00;0.60;;;8.70;99.90;;;;;;5066515;28;20314;-64
2022/12/30 14:06:45;;;;;;;1.90;0.57;;;8.80;99.90;;;;;;5064699;28;20311;-62
2022/12/30 14:09:19;;;;;;;2.70;0.70;;;8.80;99.90;;;;;;5069131;28;20628;-62
2022/12/30 14:12:04;;;;;;;2.07;0.90;;;8.80;99.90;;;;;;5073708;28;20277;-62
2022/12/30 14:14:41;;;;;;;2.60;0.93;;;8.80;99.90;;;;;;5069716;28;20199;-61
2022/12/30 14:17:46;;;;;;;1.90;1.03;;;8.80;99.90;;;;;;5064640;28;20204;-62
2022/12/30 14:20:25;;;;;;;1.63;0.60;;;8.80;99.90;;;;;;5061053;28;20299;-64